Time;durP1;ratioP1;P1;durP2;ratioP2;P2;SDS_P1;SDS_P2;PMS_P1;PMS_P2;Temp;Humidity;BMP_temperature;BMP_pressure;BME280_temperature;BME280_humidity;BME280_pressure;Samples;Min_cycle;Max_cycle;Signal;HPM_P1;HPM_P2
2022/05/03 00:00:06;;;;;;;7.07;1.67;;;;;;;5.08;48.41;101887.72;5000992;28;20044;-73
2022/05/03 00:02:53;;;;;;;3.78;1.80;;;;;;;5.00;48.44;101889.44;5001147;28;20049;-72
2022/05/03 00:06:02;;;;;;;2.35;1.67;;;;;;;5.01;48.29;101881.66;5003057;28;20037;-72
2022/05/03 00:08:36;;;;;;;3.63;1.75;;;;;;;4.83;48.63;101879.91;4938177;28;20052;-71
2022/05/03 00:11:26;;;;;;;3.00;1.88;;;;;;;4.78;48.93;101876.44;5018541;28;20037;-72
2022/05/03 00:14:17;;;;;;;3.15;1.83;;;;;;;4.71;48.96;101879.03;4999976;28;20077;-69
2022/05/03 00:16:44;;;;;;;5.72;1.33;;;;;;;4.51;48.92;101879.00;5016741;28;20072;-64
2022/05/03 00:19:10;;;;;;;3.35;1.83;;;;;;;4.36;48.90;101867.78;4997732;28;20290;-65
2022/05/03 00:21:38;;;;;;;3.55;1.55;;;;;;;4.36;49.17;101875.56;5018913;28;20119;-67
2022/05/03 00:24:05;;;;;;;2.60;1.42;;;;;;;4.32;48.92;101880.69;5016635;28;20141;-65
2022/05/03 00:26:32;;;;;;;2.58;1.70;;;;;;;4.22;49.16;101874.63;5002608;28;20044;-65
2022/05/03 00:28:58;;;;;;;2.78;1.88;;;;;;;4.29;49.16;101878.97;5016740;28;20048;-65
2022/05/03 00:31:26;;;;;;;5.50;2.33;;;;;;;4.21;49.20;101878.97;4996778;28;20171;-65
2022/05/03 00:33:53;;;;;;;5.18;2.33;;;;;;;4.27;49.26;101879.81;5014754;28;20524;-65
2022/05/03 00:36:18;;;;;;;3.42;2.22;;;;;;;4.15;49.51;101871.16;5019440;28;20041;-65
2022/05/03 00:38:44;;;;;;;3.40;2.20;;;;;;;4.14;49.52;101871.16;4997507;28;20110;-65
2022/05/03 00:41:16;;;;;;;2.78;2.13;;;;;;;4.08;49.60;101866.84;4999520;28;20039;-65
2022/05/03 00:44:01;;;;;;;6.07;2.28;;;;;;;4.07;49.55;101869.41;4991480;28;20536;-65
2022/05/03 00:46:30;;;;;;;2.28;1.63;;;;;;;4.17;49.50;101876.34;5019739;28;20065;-65
2022/05/03 00:49:14;;;;;;;2.13;1.38;;;;;;;4.20;49.20;101876.34;5014841;28;20514;-65
2022/05/03 00:52:04;;;;;;;3.05;1.58;;;;;;;4.13;49.36;101869.44;5019462;28;20360;-65
2022/05/03 00:54:54;;;;;;;2.63;1.80;;;;;;;4.02;49.51;101878.03;5000949;28;20159;-65
2022/05/03 00:57:36;;;;;;;3.25;2.03;;;;;;;3.95;49.57;101884.03;5017733;28;20457;-74
2022/05/03 01:00:12;;;;;;;2.50;1.45;;;;;;;3.90;49.82;101877.13;5019760;28;20099;-69
2022/05/03 01:02:56;;;;;;;3.45;2.03;;;;;;;3.97;49.98;101879.75;5017369;28;20072;-68
2022/05/03 01:05:41;;;;;;;3.63;1.80;;;;;;;4.05;49.52;101871.13;5000726;28;20087;-67
2022/05/03 01:08:11;;;;;;;2.90;2.45;;;;;;;4.01;49.76;101880.63;5017148;28;20042;-67
2022/05/03 01:10:58;;;;;;;4.30;2.13;;;;;;;3.99;49.86;101878.03;5017333;28;20044;-67
2022/05/03 01:13:33;;;;;;;3.67;1.98;;;;;;;3.93;49.88;101880.56;5016524;28;20072;-67
2022/05/03 01:16:10;;;;;;;3.47;2.03;;;;;;;3.94;49.88;101874.56;5016465;28;20523;-67
2022/05/03 01:18:53;;;;;;;2.10;1.75;;;;;;;3.92;50.08;101878.00;5018278;28;20045;-67
2022/05/03 01:21:33;;;;;;;4.20;2.50;;;;;;;3.89;50.03;101871.06;5017319;28;20045;-68
2022/05/03 01:24:21;;;;;;;4.45;2.42;;;;;;;3.83;50.53;101871.06;4997773;28;20224;-68
2022/05/03 01:27:17;;;;;;;4.57;2.50;;;;;;;3.95;50.66;101867.66;5017425;28;20442;-68
2022/05/03 01:29:48;;;;;;;3.88;2.25;;;;;;;3.99;50.60;101867.69;5017023;28;20060;-68
2022/05/03 01:32:18;;;;;;;4.00;2.65;;;;;;;4.14;50.19;101860.81;4997983;28;20607;-68
2022/05/03 01:34:46;;;;;;;3.38;2.42;;;;;;;4.24;50.12;101870.34;5016770;28;20029;-68
2022/05/03 01:37:53;;;;;;;5.40;2.75;;;;;;;4.41;50.39;101866.06;5001215;28;20098;-68
2022/05/03 01:40:33;;;;;;;4.05;3.10;;;;;;;4.41;50.15;101863.47;4999890;28;20541;-68
2022/05/03 01:43:13;;;;;;;4.55;2.28;;;;;;;4.47;50.23;101859.16;4996852;28;20255;-68
2022/05/03 01:45:47;;;;;;;4.07;2.70;;;;;;;4.57;49.89;101855.72;4984081;28;20037;-68
2022/05/03 01:51:46;;;;;;;5.38;2.90;;;;;;;4.68;49.62;101853.16;5017588;28;20037;-65
2022/05/03 01:54:33;;;;;;;3.40;2.58;;;;;;;4.76;49.57;101852.25;4967384;28;20618;-65
2022/05/03 01:57:12;;;;;;;3.95;2.33;;;;;;;4.74;49.68;101848.81;4996747;28;20275;-65
2022/05/03 02:00:01;;;;;;;6.65;2.35;;;;;;;4.74;49.73;101848.81;5016264;28;20018;-64
2022/05/03 02:03:08;;;;;;;3.75;2.08;;;;;;;4.80;49.65;101842.78;5017612;28;20052;-63
2022/05/03 02:05:55;;;;;;;2.83;2.03;;;;;;;4.84;49.39;101853.13;4948391;28;20439;-70
2022/05/03 02:08:23;;;;;;;5.93;3.70;;;;;;;4.89;49.65;101854.91;4986630;28;20051;-69
2022/05/03 02:11:15;;;;;;;5.20;2.80;;;;;;;4.91;49.74;101855.75;5001769;28;20095;-69
2022/05/03 02:16:43;;;;;;;3.28;2.13;;;;;;;4.68;49.72;101859.19;5021699;28;20353;-64
2022/05/03 02:19:20;;;;;;;3.42;2.30;;;;;;;4.63;49.59;101856.59;5003806;28;20098;-65
2022/05/03 02:22:11;;;;;;;5.25;2.13;;;;;;;4.51;49.44;101856.56;5019600;28;20107;-65
2022/05/03 02:24:49;;;;;;;6.70;2.50;;;;;;;4.38;49.96;101854.81;5003019;28;20045;-65
2022/05/03 02:27:18;;;;;;;4.10;2.53;;;;;;;4.39;50.39;101851.41;5020177;28;20069;-65
2022/05/03 02:29:49;;;;;;;7.63;3.63;;;;;;;4.47;50.22;101848.81;5020649;28;20033;-67
2022/05/03 02:32:27;;;;;;;5.60;3.45;;;;;;;4.65;50.38;101851.41;5020582;28;20048;-67
2022/05/03 02:35:03;;;;;;;4.85;2.65;;;;;;;4.81;49.95;101847.97;5000078;28;20021;-71
2022/05/03 02:37:38;;;;;;;4.95;2.85;;;;;;;4.98;49.79;101845.38;5004420;28;20513;-71
2022/05/03 02:40:13;;;;;;;4.97;2.53;;;;;;;5.07;49.74;101852.28;5020180;28;20257;-71
2022/05/03 02:42:39;;;;;;;8.90;3.33;;;;;;;5.13;49.85;101851.41;5021731;28;20372;-72
2022/05/03 02:45:06;;;;;;;4.07;3.03;;;;;;;5.15;49.45;101847.97;5019839;28;20060;-71
2022/05/03 02:47:44;;;;;;;3.60;2.45;;;;;;;5.19;49.56;101848.78;5002933;28;20509;-72
2022/05/03 02:50:13;;;;;;;4.10;3.00;;;;;;;5.19;50.13;101847.09;5020581;28;20733;-72
2022/05/03 02:52:56;;;;;;;6.18;3.70;;;;;;;5.37;49.90;101840.13;5002523;28;20049;-71
2022/05/03 02:55:27;;;;;;;4.97;3.55;;;;;;;5.54;50.06;101843.53;5002431;28;20334;-72
2022/05/03 02:58:05;;;;;;;6.13;4.20;;;;;;;5.65;49.83;101836.56;5019367;28;20042;-72
2022/05/03 03:03:28;;;;;;;5.67;3.60;;;;;;;5.74;49.54;101834.81;5003377;28;20119;-72
2022/05/03 03:05:59;;;;;;;4.47;2.72;;;;;;;5.83;49.55;101830.44;5000676;28;20064;-71
2022/05/03 03:08:27;;;;;;;5.70;3.22;;;;;;;5.91;49.58;101833.00;4997221;28;20041;-71
2022/05/03 03:11:02;;;;;;;7.75;3.92;;;;;;;5.92;49.60;101839.91;5020392;28;20029;-71
2022/05/03 03:13:39;;;;;;;6.85;3.80;;;;;;;6.01;49.45;101845.03;5000779;28;20045;-71
2022/05/03 03:16:09;;;;;;;4.60;3.38;;;;;;;5.99;49.47;101831.22;5020420;28;20037;-71
2022/05/03 03:18:36;;;;;;;7.10;4.38;;;;;;;6.04;49.66;101839.84;5020023;28;20045;-72
2022/05/03 03:21:07;;;;;;;9.27;4.50;;;;;;;6.06;49.74;101835.53;5019398;28;20029;-70
2022/05/03 03:23:35;;;;;;;4.85;3.92;;;;;;;6.23;49.79;101829.34;4993101;28;20041;-71
2022/05/03 03:26:01;;;;;;;6.40;4.05;;;;;;;6.41;49.61;101829.25;5020447;28;20033;-71
2022/05/03 03:28:29;;;;;;;5.97;4.40;;;;;;;6.52;49.75;101838.72;4996210;28;20037;-72
2022/05/03 03:30:58;;;;;;;4.90;4.13;;;;;;;6.55;49.19;101829.16;5019800;28;20705;-72
2022/05/03 03:33:25;;;;;;;8.77;3.72;;;;;;;6.61;49.70;101831.69;5001566;28;20576;-70
2022/05/03 03:35:54;;;;;;;7.05;4.43;;;;;;;6.55;49.61;101831.75;5018954;28;20025;-69
2022/05/03 03:38:30;;;;;;;7.05;4.30;;;;;;;6.55;49.45;101836.06;5000326;28;20041;-67
2022/05/03 03:40:56;;;;;;;8.50;4.25;;;;;;;6.45;49.76;101820.56;5019642;28;20044;-71
2022/05/03 03:43:22;;;;;;;7.22;4.53;;;;;;;6.41;49.53;101818.84;5001978;28;20521;-70
2022/05/03 03:45:48;;;;;;;14.55;5.28;;;;;;;6.34;50.78;101824.97;5002565;28;20033;-71
2022/05/03 03:48:13;;;;;;;9.95;5.10;;;;;;;6.43;50.82;101824.91;5001158;28;20045;-65
2022/05/03 03:50:40;;;;;;;9.07;6.28;;;;;;;6.29;51.04;101818.97;5001655;28;20087;-66
2022/05/03 03:53:07;;;;;;;8.70;5.13;;;;;;;6.34;51.31;101822.38;5019334;28;20418;-68
2022/05/03 03:55:34;;;;;;;11.50;6.50;;;;;;;6.52;51.17;101828.31;5002533;28;20038;-71
2022/05/03 03:58:00;;;;;;;10.43;5.45;;;;;;;6.77;50.41;101827.22;5019109;28;20064;-71
2022/05/03 04:00:25;;;;;;;8.38;5.70;;;;;;;6.93;50.08;101827.09;5021071;28;20246;-71
2022/05/03 04:02:52;;;;;;;14.18;6.80;;;;;;;6.77;50.32;101832.41;5018800;28;20038;-68
2022/05/03 04:05:24;;;;;;;8.80;6.13;;;;;;;6.81;50.76;101818.53;5001320;28;20177;-68
2022/05/03 04:07:51;;;;;;;10.20;6.40;;;;;;;6.68;50.54;101824.72;5017966;28;20041;-67
2022/05/03 04:10:17;;;;;;;11.32;7.13;;;;;;;6.85;50.86;101825.44;5020048;28;20068;-70
2022/05/03 04:12:43;;;;;;;9.82;6.63;;;;;;;6.94;50.56;101827.09;5019044;28;20413;-70
2022/05/03 04:15:09;;;;;;;12.30;8.20;;;;;;;6.98;50.38;101827.94;5018110;28;20037;-70
2022/05/03 04:17:35;;;;;;;11.55;7.13;;;;;;;7.07;50.82;101830.44;4995514;28;20049;-70
2022/05/03 04:20:01;;;;;;;17.33;9.70;;;;;;;7.09;50.41;101829.53;5019009;28;20033;-69
2022/05/03 04:22:29;;;;;;;11.45;7.80;;;;;;;6.99;50.27;101824.44;5018722;28;20071;-70
2022/05/03 04:24:55;;;;;;;11.50;7.18;;;;;;;7.06;50.90;101829.53;5018950;28;20029;-67
2022/05/03 04:27:21;;;;;;;16.35;8.38;;;;;;;7.07;50.67;101828.69;5019271;28;20074;-67
2022/05/03 04:29:48;;;;;;;10.82;7.05;;;;;;;7.18;50.98;101832.94;4998724;28;20402;-69
2022/05/03 04:32:16;;;;;;;11.07;6.60;;;;;;;6.99;50.41;101833.09;4998963;28;20117;-69
2022/05/03 04:34:41;;;;;;;13.07;6.97;;;;;;;7.13;51.12;101832.94;5000125;28;20029;-74
2022/05/03 04:37:07;;;;;;;8.63;5.63;;;;;;;7.13;50.95;101835.53;5020093;28;20388;-73
2022/05/03 04:39:33;;;;;;;14.50;7.50;;;;;;;7.18;51.18;101833.78;4997742;28;20029;-74
2022/05/03 04:41:58;;;;;;;10.88;6.70;;;;;;;7.27;50.91;101827.63;5000385;28;20130;-73
2022/05/03 04:44:24;;;;;;;15.23;7.03;;;;;;;7.34;51.11;101829.28;5000413;28;20550;-72
2022/05/03 04:46:49;;;;;;;13.45;7.35;;;;;;;7.31;50.93;101832.78;5017840;28;20068;-72
2022/05/03 04:49:15;;;;;;;14.50;8.52;;;;;;;7.40;51.02;101834.41;5020913;28;20033;-70
2022/05/03 04:51:40;;;;;;;12.65;8.00;;;;;;;7.48;51.22;101831.72;5018505;28;20037;-71
2022/05/03 04:54:06;;;;;;;19.90;9.40;;;;;;;7.40;51.45;101839.63;5000513;28;20026;-71
2022/05/03 04:56:32;;;;;;;19.70;10.10;;;;;;;7.47;51.91;101835.22;5021034;28;20398;-71
2022/05/03 04:58:58;;;;;;;16.20;9.45;;;;;;;7.50;52.33;101832.56;5017612;28;20036;-71
2022/05/03 05:01:24;;;;;;;20.70;9.50;;;;;;;7.53;52.07;101837.72;5001930;28;20025;-71
2022/05/03 05:03:50;;;;;;;17.60;8.98;;;;;;;7.67;52.36;101848.00;5016103;28;20041;-71
2022/05/03 05:06:16;;;;;;;18.15;9.88;;;;;;;7.79;52.28;101847.00;5000892;28;20098;-72
2022/05/03 05:08:43;;;;;;;20.33;11.45;;;;;;;7.73;52.04;101855.72;5017646;28;20043;-71
2022/05/03 05:11:09;;;;;;;17.73;10.77;;;;;;;7.76;52.22;101858.31;5017532;28;20323;-71
2022/05/03 05:13:36;;;;;;;22.85;11.68;;;;;;;7.69;52.44;101862.72;5016802;28;20056;-71
2022/05/03 05:16:03;;;;;;;21.20;11.65;;;;;;;7.66;53.26;101872.28;4999070;28;20119;-72
2022/05/03 05:18:28;;;;;;;22.80;11.43;;;;;;;7.70;53.25;101864.44;5001149;28;20049;-71
2022/05/03 05:20:54;;;;;;;21.88;11.73;;;;;;;7.66;53.41;101864.47;4992824;28;20053;-72
2022/05/03 05:23:20;;;;;;;23.38;11.90;;;;;;;7.66;53.58;101877.50;5018572;28;20037;-72
2022/05/03 05:25:49;;;;;;;19.55;10.02;;;;;;;7.72;53.94;101870.47;5017290;28;20444;-72
2022/05/03 05:28:19;;;;;;;21.33;10.18;;;;;;;7.84;53.99;101879.00;5001524;28;20033;-69
2022/05/03 05:30:45;;;;;;;27.80;10.63;;;;;;;7.74;54.19;101873.94;5018080;28;20052;-72
2022/05/03 05:33:10;;;;;;;19.75;8.13;;;;;;;7.77;54.41;101879.97;5016526;28;20049;-72
2022/05/03 05:35:36;;;;;;;17.67;5.18;;;;;;;7.67;54.85;101876.63;5019216;28;20546;-70
2022/05/03 05:38:02;;;;;;;13.00;3.78;;;;;;;7.80;54.54;101883.41;5016001;28;20041;-70
2022/05/03 05:40:28;;;;;;;20.83;5.63;;;;;;;7.47;55.46;101888.09;5018689;28;20045;-71
2022/05/03 05:42:54;;;;;;;22.92;4.70;;;;;;;7.64;55.59;101890.50;5016350;28;20057;-71
2022/05/03 05:45:19;;;;;;;16.35;5.03;;;;;;;7.59;55.43;101887.13;5019023;28;20426;-71
2022/05/03 05:47:45;;;;;;;20.10;4.80;;;;;;;7.74;55.46;101889.53;5016099;28;20049;-73
2022/05/03 05:50:11;;;;;;;24.10;4.22;;;;;;;7.67;55.16;101900.06;5018685;28;20033;-71
2022/05/03 05:55:22;;;;;;;13.77;4.43;;;;;;;7.30;55.84;101900.41;5019536;28;20517;-72
2022/05/03 05:57:47;;;;;;;16.63;3.63;;;;;;;7.06;56.47;101902.34;5017696;28;20042;-72
2022/05/03 06:00:13;;;;;;;11.02;3.70;;;;;;;7.19;56.32;101912.63;4999966;28;20137;-71
2022/05/03 06:02:40;;;;;;;13.77;3.78;;;;;;;7.12;55.89;101911.84;4998535;28;20272;-72
2022/05/03 06:05:06;;;;;;;19.88;4.97;;;;;;;6.87;56.02;101917.25;5000154;28;20044;-72
2022/05/03 06:07:32;;;;;;;8.57;2.70;;;;;;;6.86;55.82;101918.13;5018232;28;20044;-72
2022/05/03 06:09:57;;;;;;;7.80;2.40;;;;;;;6.96;55.89;101916.31;5016454;28;20041;-72
2022/05/03 06:12:23;;;;;;;7.18;2.10;;;;;;;7.26;54.09;101922.94;5018438;28;20049;-72
2022/05/03 06:14:48;;;;;;;14.93;1.85;;;;;;;7.07;54.34;101927.47;5017482;28;20041;-71
2022/05/03 06:17:14;;;;;;;11.90;1.45;;;;;;;7.28;54.03;101922.94;5017136;28;20053;-73
2022/05/03 06:19:39;;;;;;;11.63;2.03;;;;;;;7.26;54.08;101924.69;5017658;28;20095;-71
2022/05/03 06:22:05;;;;;;;9.63;2.15;;;;;;;7.17;54.23;101928.25;5017131;28;20135;-71
2022/05/03 06:24:31;;;;;;;8.15;1.48;;;;;;;7.27;54.14;101924.69;5015580;28;20029;-72
2022/05/03 06:26:58;;;;;;;9.52;3.20;;;;;;;6.90;54.85;101930.19;4997979;28;20092;-71
2022/05/03 06:29:24;;;;;;;8.35;1.98;;;;;;;6.79;54.96;101928.56;4988602;28;20113;-70
2022/05/03 06:31:50;;;;;;;14.95;3.33;;;;;;;7.19;54.29;101931.69;4998474;28;20037;-73
2022/05/03 06:34:16;;;;;;;18.20;2.50;;;;;;;7.39;54.07;101934.13;5017773;28;20033;-71
2022/05/03 06:36:42;;;;;;;11.57;2.22;;;;;;;7.07;54.54;101930.06;4996503;28;20036;-71
2022/05/03 06:39:07;;;;;;;11.93;2.35;;;;;;;7.32;54.01;101924.66;5018131;28;20129;-71
2022/05/03 06:41:33;;;;;;;16.70;2.70;;;;;;;7.12;54.24;101930.03;5017943;28;20120;-72
2022/05/03 06:43:58;;;;;;;15.95;2.00;;;;;;;7.64;52.71;101936.50;5016908;28;20056;-71
2022/05/03 06:46:25;;;;;;;9.23;1.90;;;;;;;7.39;52.71;101935.84;5017330;28;20123;-71
2022/05/03 06:48:51;;;;;;;9.15;1.10;;;;;;;7.27;52.08;101932.50;5017087;28;20045;-72
2022/05/03 06:51:16;;;;;;;20.75;2.65;;;;;;;7.50;51.34;101939.22;4999299;28;20723;-72
2022/05/03 06:53:42;;;;;;;15.82;3.15;;;;;;;7.71;50.53;101948.56;5019606;28;20041;-71
2022/05/03 06:56:08;;;;;;;14.15;2.13;;;;;;;7.71;51.45;101944.25;5021287;28;20041;-72
2022/05/03 06:58:34;;;;;;;19.30;2.00;;;;;;;7.74;50.00;101944.19;5003716;28;20052;-72
2022/05/03 07:01:08;;;;;;;10.02;1.42;;;;;;;8.08;49.42;101953.34;5019698;28;20067;-71
2022/05/03 07:03:37;;;;;;;10.00;1.08;;;;;;;8.10;48.93;101957.66;5020196;28;20409;-72
2022/05/03 07:06:03;;;;;;;9.27;1.45;;;;;;;7.68;49.32;101959.00;5021900;28;20143;-71
2022/05/03 07:08:29;;;;;;;13.18;2.10;;;;;;;7.96;47.91;101949.16;5000965;28;20496;-71
2022/05/03 07:10:55;;;;;;;14.07;1.30;;;;;;;7.97;48.37;101953.47;4984199;28;20395;-71
2022/05/03 07:13:23;;;;;;;11.30;2.08;;;;;;;8.50;47.18;101951.94;4988039;28;20044;-70
2022/05/03 07:15:53;;;;;;;11.52;1.50;;;;;;;8.30;47.17;101959.16;5022135;28;20036;-71
2022/05/03 07:23:49;;;;;;;13.00;1.15;;;;;;;8.93;44.69;101953.91;5018759;28;20125;-71
2022/05/03 07:26:15;;;;;;;1.75;0.60;;;;;;;8.64;44.55;101953.47;5003519;28;20144;-71
2022/05/03 07:28:40;;;;;;;11.98;0.82;;;;;;;8.89;43.73;101954.84;5021129;28;20048;-72
2022/05/03 07:31:06;;;;;;;9.65;1.02;;;;;;;8.64;43.40;101961.28;5003298;28;20040;-71
2022/05/03 07:33:32;;;;;;;8.52;0.52;;;;;;;8.89;42.71;101954.84;4999667;28;20537;-71
2022/05/03 07:35:57;;;;;;;7.70;0.80;;;;;;;9.00;42.51;101962.50;5001905;28;20028;-71
2022/05/03 07:38:23;;;;;;;7.13;0.70;;;;;;;9.18;41.71;101961.34;5020596;28;20033;-72
2022/05/03 07:40:48;;;;;;;17.35;1.40;;;;;;;9.07;41.89;101958.91;5020960;28;20509;-73
2022/05/03 07:43:14;;;;;;;3.45;0.60;;;;;;;9.30;41.62;101961.13;5019154;28;20049;-71
2022/05/03 07:45:39;;;;;;;6.70;0.98;;;;;;;8.82;41.99;101962.78;5002077;28;20044;-72
2022/05/03 07:48:05;;;;;;;6.97;1.05;;;;;;;9.02;41.91;101959.88;5018595;28;20389;-72
2022/05/03 07:50:31;;;;;;;1.90;0.40;;;;;;;9.33;40.82;101958.47;5020067;28;20037;-71
2022/05/03 07:52:56;;;;;;;6.68;0.75;;;;;;;9.68;39.97;101962.19;4998323;28;20069;-72
2022/05/03 07:55:22;;;;;;;5.35;0.82;;;;;;;9.22;39.84;101968.22;4994456;28;20033;-71
2022/05/03 07:57:47;;;;;;;6.55;0.77;;;;;;;9.78;39.25;101968.94;5001210;28;20045;-70
2022/05/03 08:00:13;;;;;;;4.20;0.98;;;;;;;9.26;40.19;101977.72;5020448;28;20056;-72
2022/05/03 08:02:39;;;;;;;7.80;0.60;;;;;;;9.71;38.94;101972.56;5000624;28;20034;-72
2022/05/03 08:05:04;;;;;;;3.75;0.90;;;;;;;9.39;39.57;101976.63;4996573;28;20656;-71
2022/05/03 08:07:30;;;;;;;6.38;1.25;;;;;;;9.63;38.38;101979.66;5000844;28;20060;-71
2022/05/03 08:09:55;;;;;;;9.88;1.15;;;;;;;9.44;38.85;101978.31;5018222;28;20029;-71
2022/05/03 08:12:22;;;;;;;5.20;1.33;;;;;;;9.71;38.30;101979.56;5019200;28;20446;-72
2022/05/03 08:14:47;;;;;;;6.93;0.70;;;;;;;9.79;38.14;101980.28;4984927;28;20022;-72
2022/05/03 08:17:13;;;;;;;2.65;0.43;;;;;;;9.90;37.90;101980.97;5002117;28;20399;-72
2022/05/03 08:19:39;;;;;;;2.85;0.65;;;;;;;10.27;36.60;101988.03;5002811;28;20124;-71
2022/05/03 08:22:05;;;;;;;1.77;0.85;;;;;;;9.44;36.74;101996.56;5017800;28;20041;-71
2022/05/03 08:24:31;;;;;;;6.45;0.85;;;;;;;9.42;36.77;101986.16;5002512;28;20037;-71
2022/05/03 08:26:56;;;;;;;7.40;0.82;;;;;;;9.12;36.43;101992.72;4973739;28;20033;-71
2022/05/03 08:29:23;;;;;;;8.77;0.55;;;;;;;9.16;37.40;101995.28;5019798;28;20501;-72
2022/05/03 08:31:49;;;;;;;4.43;0.68;;;;;;;9.90;37.20;101987.91;4983136;28;20033;-71
2022/05/03 08:34:14;;;;;;;1.70;0.40;;;;;;;10.78;35.80;101989.53;4996219;28;20135;-72
2022/05/03 08:36:40;;;;;;;5.32;0.63;;;;;;;10.99;35.63;101993.44;5019781;28;20052;-71
2022/05/03 08:42:02;;;;;;;8.75;0.50;;;;;;;11.22;34.11;101992.88;5017676;28;20041;-71
2022/05/03 08:44:30;;;;;;;10.73;0.32;;;;;;;10.91;35.03;101993.63;5001844;28;20064;-72
2022/05/03 08:46:57;;;;;;;2.92;0.40;;;;;;;10.60;36.13;102002.13;4998070;28;20034;-71
2022/05/03 08:49:24;;;;;;;8.77;0.40;;;;;;;10.91;34.89;101998.00;5005935;28;20181;-71
2022/05/03 08:51:52;;;;;;;8.73;1.00;;;;;;;10.57;35.58;101991.75;5014650;28;20044;-72
2022/05/03 08:54:20;;;;;;;5.03;0.40;;;;;;;11.59;33.18;101995.41;5000920;28;20029;-73
2022/05/03 08:56:47;;;;;;;4.32;1.55;;;;;;;12.16;32.80;101995.66;5016275;28;20524;-72
2022/05/03 08:59:12;;;;;;;3.70;0.57;;;;;;;12.31;32.38;101989.06;5019607;28;20128;-71
2022/05/03 09:01:38;;;;;;;3.80;0.82;;;;;;;12.63;32.55;101991.59;5020111;28;20025;-71
2022/05/03 09:04:04;;;;;;;2.55;0.47;;;;;;;12.52;31.57;101992.84;5016462;28;20099;-71
2022/05/03 09:06:47;;;;;;;8.30;0.60;;;;;;;12.95;31.32;101992.38;5020162;28;20045;-72
2022/05/03 09:09:14;;;;;;;3.20;0.40;;;;;;;13.18;31.73;101996.00;5018476;28;20033;-74
2022/05/03 09:11:48;;;;;;;3.42;0.38;;;;;;;12.89;31.01;101998.69;5019068;28;20037;-71
2022/05/03 09:14:36;;;;;;;5.05;0.63;;;;;;;12.99;31.36;101999.25;5017825;28;20043;-71
2022/05/03 09:17:02;;;;;;;3.15;0.70;;;;;;;11.52;32.57;101993.84;5014759;28;20057;-71
2022/05/03 09:19:28;;;;;;;8.82;1.65;;;;;;;12.63;31.76;101999.47;5020837;28;20040;-72
2022/05/03 09:24:55;;;;;;;9.40;1.13;;;;;;;11.97;32.21;102011.00;5020029;28;20040;-70
2022/05/03 09:27:21;;;;;;;;;;;;;;;11.83;32.37;102009.63;5017220;28;20410;-71
2022/05/03 09:30:20;;;;;;;9.48;0.82;;;;;;;12.25;31.59;102016.34;5004566;28;19916;-71
2022/05/03 09:32:47;;;;;;;7.90;1.20;;;;;;;12.11;32.05;102011.50;4959396;28;20044;-72
2022/05/03 09:35:35;;;;;;;5.00;1.05;;;;;;;12.72;31.59;102006.22;5003600;28;20032;-71
2022/05/03 09:38:03;;;;;;;5.53;0.68;;;;;;;12.32;31.68;102009.16;4997909;28;20679;-72
2022/05/03 09:40:55;;;;;;;5.40;0.73;;;;;;;12.57;31.68;102014.53;4988219;28;20036;-71
2022/05/03 09:43:20;;;;;;;2.33;0.20;;;;;;;13.01;31.11;102013.16;4997061;28;20278;-71
2022/05/03 09:45:45;;;;;;;4.03;0.50;;;;;;;12.97;31.02;102016.78;5000535;28;20567;-71
2022/05/03 09:48:11;;;;;;;5.82;0.57;;;;;;;11.76;32.18;102015.06;5018892;28;20049;-71
2022/05/03 09:50:39;;;;;;;3.33;0.30;;;;;;;11.60;32.61;102017.22;5019732;28;20163;-71
2022/05/03 09:53:17;;;;;;;5.35;0.73;;;;;;;12.07;32.15;102018.59;5017786;28;20033;-71
2022/05/03 09:55:45;;;;;;;7.82;1.27;;;;;;;12.52;31.15;102011.19;4999590;28;20025;-71
2022/05/03 09:58:13;;;;;;;4.50;0.50;;;;;;;12.73;30.20;102017.56;4998803;28;20422;-71
2022/05/03 10:00:42;;;;;;;8.65;0.43;;;;;;;12.80;30.42;102026.97;5018646;28;20115;-70
2022/05/03 10:03:10;;;;;;;6.20;0.90;;;;;;;12.99;30.00;102024.63;5017631;28;20037;-71
2022/05/03 10:05:41;;;;;;;4.13;0.50;;;;;;;12.70;29.84;102024.63;5000167;28;20032;-70
2022/05/03 10:08:11;;;;;;;7.10;0.55;;;;;;;12.91;29.28;102016.97;5018164;28;20727;-70
2022/05/03 10:10:39;;;;;;;8.82;0.55;;;;;;;13.68;29.34;102012.69;5000027;28;20034;-71
2022/05/03 10:13:05;;;;;;;1.75;0.60;;;;;;;14.22;27.77;102005.50;5016531;28;20076;-71
2022/05/03 10:21:12;;;;;;;2.15;0.30;;;;;;;13.75;29.32;102007.25;5018137;28;20113;-71
2022/05/03 10:23:40;;;;;;;5.35;1.35;;;;;;;14.62;28.20;102008.41;4974353;28;20046;-71
2022/05/03 10:26:11;;;;;;;14.27;0.98;;;;;;;14.71;27.71;102014.16;5015197;28;20068;-72
2022/05/03 10:29:05;;;;;;;10.48;1.42;;;;;;;13.91;28.50;102006.63;5018224;28;20143;-72
2022/05/03 10:31:31;;;;;;;4.65;0.95;;;;;;;13.43;29.21;102015.28;5022594;28;20559;-71
2022/05/03 10:33:59;;;;;;;4.25;0.60;;;;;;;13.35;29.38;102017.31;5019213;28;20041;-69
2022/05/03 10:36:31;;;;;;;3.58;0.45;;;;;;;13.38;29.87;102017.19;5021514;28;20033;-71
2022/05/03 10:39:19;;;;;;;3.00;0.93;;;;;;;12.95;29.37;102015.97;5020452;28;22005;-70
2022/05/03 10:42:14;;;;;;;3.17;0.63;;;;;;;11.97;31.16;102026.72;5020882;28;20454;-71
2022/05/03 10:44:52;;;;;;;2.50;0.73;;;;;;;13.25;29.52;102024.66;5006308;28;20052;-71
2022/05/03 10:47:20;;;;;;;5.28;0.60;;;;;;;13.61;29.71;102018.22;5018781;28;20453;-70
2022/05/03 10:50:10;;;;;;;4.65;0.98;;;;;;;13.83;28.83;102021.81;5020869;28;20391;-71
2022/05/03 10:52:36;;;;;;;6.28;0.50;;;;;;;13.84;28.96;102010.38;5016988;28;20235;-71
2022/05/03 10:55:10;;;;;;;3.30;0.57;;;;;;;12.90;29.51;102015.28;5004045;28;20542;-71
2022/05/03 10:58:13;;;;;;;6.65;1.15;;;;;;;13.44;28.84;102011.75;4994364;28;20052;-71
2022/05/03 11:01:00;;;;;;;8.20;0.63;;;;;;;13.23;29.50;102010.72;5001871;28;20115;-71
2022/05/03 11:03:26;;;;;;;4.03;0.70;;;;;;;14.05;27.50;102013.16;5018616;28;20487;-70
2022/05/03 11:06:23;;;;;;;4.22;0.73;;;;;;;13.68;28.88;102010.06;5001774;28;20094;-71
2022/05/03 11:09:04;;;;;;;7.93;0.65;;;;;;;13.67;27.80;102007.50;4994677;28;20483;-71
2022/05/03 11:11:52;;;;;;;4.33;0.50;;;;;;;14.11;27.30;102007.66;5019510;28;20426;-71
2022/05/03 11:17:09;;;;;;;6.63;1.17;;;;;;;13.66;28.41;101997.91;5019086;28;20043;-71
2022/05/03 11:19:37;;;;;;;7.47;0.40;;;;;;;14.79;27.83;101994.56;5019871;28;20041;-71
2022/05/03 11:22:09;;;;;;;4.90;0.70;;;;;;;14.58;27.14;102001.56;5018472;28;20285;-71
2022/05/03 11:24:39;;;;;;;4.28;0.50;;;;;;;14.16;27.31;101989.94;5001918;28;20209;-71
2022/05/03 11:27:11;;;;;;;4.45;0.70;;;;;;;13.76;27.91;101994.03;5017978;28;20513;-72
2022/05/03 11:29:41;;;;;;;;;;;;;;;13.81;28.09;101989.47;5003068;28;20137;-71
2022/05/03 11:32:08;;;;;;;2.92;0.80;;;;;;;13.31;28.30;102006.03;5018447;28;19964;-71
2022/05/03 11:34:35;;;;;;;5.10;0.40;;;;;;;13.26;28.39;102001.88;5002077;28;20025;-71
2022/05/03 11:37:02;;;;;;;4.18;0.50;;;;;;;13.64;28.66;102002.34;5000560;28;20120;-71
2022/05/03 11:39:28;;;;;;;6.30;0.38;;;;;;;13.35;28.61;102001.56;5021633;28;20099;-71
2022/05/03 11:41:53;;;;;;;5.88;0.73;;;;;;;13.16;28.69;102000.44;5016277;28;20053;-72
2022/05/03 11:44:19;;;;;;;4.68;0.80;;;;;;;12.71;29.77;102001.88;5023996;28;20077;-72
2022/05/03 11:46:47;;;;;;;7.47;0.70;;;;;;;13.59;28.60;101996.41;5020683;28;20037;-70
2022/05/03 11:49:14;;;;;;;7.07;0.57;;;;;;;13.08;29.27;101991.06;5004716;28;20482;-70
2022/05/03 11:57:20;;;;;;;2.97;0.40;;;;;;;12.45;29.76;102002.66;5021313;28;20502;-71
2022/05/03 11:59:49;;;;;;;3.45;0.40;;;;;;;11.56;30.93;101999.88;5021290;28;20040;-71
2022/05/03 12:02:21;;;;;;;2.70;0.30;;;;;;;12.44;30.23;102006.16;4999184;28;20041;-72
2022/05/03 12:05:04;;;;;;;3.55;0.55;;;;;;;12.23;29.77;101999.81;4998908;28;20256;-71
2022/05/03 12:07:43;;;;;;;3.00;0.55;;;;;;;12.63;30.81;102007.34;5000160;28;20060;-70
2022/05/03 12:10:21;;;;;;;6.80;1.17;;;;;;;11.99;29.95;102009.22;5002992;28;20045;-71
2022/05/03 12:13:03;;;;;;;2.42;0.70;;;;;;;11.99;30.40;102011.84;5018752;28;20664;-71
2022/05/03 12:15:30;;;;;;;4.20;0.63;;;;;;;11.64;31.63;102000.50;5019520;28;20462;-72
2022/05/03 12:18:00;;;;;;;12.30;1.10;;;;;;;12.09;30.82;102013.31;4998653;28;20049;-74
2022/05/03 12:20:29;;;;;;;7.47;0.65;;;;;;;11.94;30.50;102006.72;5019265;28;20288;-72
2022/05/03 12:23:13;;;;;;;8.95;0.68;;;;;;;11.41;30.65;102003.75;5013590;28;20053;-72